sensor_id;sensor_type;location;lat;lon;timestamp;temperature;humidity
59067;DHT22;44854;50.838;4.438;2022-10-31T05:02:32;13.60;99.90
59067;DHT22;44854;50.838;4.438;2022-10-31T05:04:58;13.60;99.90
59067;DHT22;44854;50.838;4.438;2022-10-31T05:07:23;13.50;99.90
59067;DHT22;44854;50.838;4.438;2022-10-31T05:09:49;13.40;99.90
59067;DHT22;44854;50.838;4.438;2022-10-31T05:12:14;13.40;99.90
59067;DHT22;44854;50.838;4.438;2022-10-31T05:14:40;13.50;99.90
59067;DHT22;44854;50.838;4.438;2022-10-31T05:17:05;13.70;99.90
59067;DHT22;44854;50.838;4.438;2022-10-31T05:19:31;13.40;99.90
59067;DHT22;44854;50.838;4.438;2022-10-31T05:21:56;13.50;99.90
59067;DHT22;44854;50.838;4.438;2022-10-31T05:24:22;13.40;99.90
59067;DHT22;44854;50.838;4.438;2022-10-31T05:26:48;13.40;99.90
59067;DHT22;44854;50.838;4.438;2022-10-31T05:29:13;13.40;99.90
59067;DHT22;44854;50.838;4.438;2022-10-31T05:31:39;13.70;99.90
59067;DHT22;44854;50.838;4.438;2022-10-31T05:34:04;13.60;99.90
59067;DHT22;44854;50.838;4.438;2022-10-31T05:36:30;13.50;99.90
59067;DHT22;44854;50.838;4.438;2022-10-31T05:38:56;13.60;99.90
59067;DHT22;44854;50.838;4.438;2022-10-31T05:41:21;13.60;99.90
59067;DHT22;44854;50.838;4.438;2022-10-31T05:43:47;13.60;99.90
59067;DHT22;44854;50.838;4.438;2022-10-31T05:46:12;13.60;99.90
59067;DHT22;44854;50.838;4.438;2022-10-31T05:48:38;13.50;99.90
59067;DHT22;44854;50.838;4.438;2022-10-31T05:51:03;13.50;99.90
59067;DHT22;44854;50.838;4.438;2022-10-31T05:53:29;13.80;99.90
59067;DHT22;44854;50.838;4.438;2022-10-31T05:55:54;13.70;99.90
59067;DHT22;44854;50.838;4.438;2022-10-31T05:58:20;13.80;99.90
59067;DHT22;44854;50.838;4.438;2022-10-31T06:00:45;13.60;99.90
59067;DHT22;44854;50.838;4.438;2022-10-31T06:03:11;13.60;99.90
59067;DHT22;44854;50.838;4.438;2022-10-31T06:05:36;13.50;99.90
59067;DHT22;44854;50.838;4.438;2022-10-31T06:08:02;13.40;99.90
59067;DHT22;44854;50.838;4.438;2022-10-31T06:10:28;13.40;99.90
59067;DHT22;44854;50.838;4.438;2022-10-31T06:12:53;13.50;99.90
59067;DHT22;44854;50.838;4.438;2022-10-31T06:15:19;13.70;99.90
59067;DHT22;44854;50.838;4.438;2022-10-31T06:17:44;13.60;99.90
59067;DHT22;44854;50.838;4.438;2022-10-31T06:20:10;13.60;99.90
59067;DHT22;44854;50.838;4.438;2022-10-31T06:22:36;13.60;99.90
59067;DHT22;44854;50.838;4.438;2022-10-31T06:25:01;13.70;99.90
59067;DHT22;44854;50.838;4.438;2022-10-31T06:27:27;13.70;99.90
59067;DHT22;44854;50.838;4.438;2022-10-31T06:29:52;13.70;99.90
59067;DHT22;44854;50.838;4.438;2022-10-31T06:32:18;13.80;99.90
59067;DHT22;44854;50.838;4.438;2022-10-31T06:34:44;13.70;99.90
59067;DHT22;44854;50.838;4.438;2022-10-31T06:37:10;13.70;99.90
59067;DHT22;44854;50.838;4.438;2022-10-31T06:39:36;13.70;99.90
59067;DHT22;44854;50.838;4.438;2022-10-31T06:42:02;13.80;99.90
59067;DHT22;44854;50.838;4.438;2022-10-31T06:44:27;13.80;99.90
59067;DHT22;44854;50.838;4.438;2022-10-31T06:46:53;13.90;99.90
59067;DHT22;44854;50.838;4.438;2022-10-31T06:49:18;14.00;99.90
59067;DHT22;44854;50.838;4.438;2022-10-31T06:51:46;14.20;99.90
59067;DHT22;44854;50.838;4.438;2022-10-31T06:54:12;14.60;99.90
59067;DHT22;44854;50.838;4.438;2022-10-31T06:56:38;14.60;99.90
59067;DHT22;44854;50.838;4.438;2022-10-31T06:59:03;14.50;99.90
59067;DHT22;44854;50.838;4.438;2022-10-31T07:01:29;14.40;99.90
59067;DHT22;44854;50.838;4.438;2022-10-31T07:03:54;14.30;99.90
59067;DHT22;44854;50.838;4.438;2022-10-31T07:06:19;14.10;99.90
59067;DHT22;44854;50.838;4.438;2022-10-31T07:08:45;14.00;99.90
59067;DHT22;44854;50.838;4.438;2022-10-31T07:11:10;14.00;99.90
59067;DHT22;44854;50.838;4.438;2022-10-31T07:13:36;14.10;99.90
59067;DHT22;44854;50.838;4.438;2022-10-31T07:16:02;14.30;99.90
59067;DHT22;44854;50.838;4.438;2022-10-31T07:18:28;14.30;99.90
59067;DHT22;44854;50.838;4.438;2022-10-31T07:20:54;14.40;99.90
59067;DHT22;44854;50.838;4.438;2022-10-31T07:23:19;14.30;99.90
59067;DHT22;44854;50.838;4.438;2022-10-31T07:25:45;14.60;99.90
59067;DHT22;44854;50.838;4.438;2022-10-31T07:28:10;14.60;99.90
59067;DHT22;44854;50.838;4.438;2022-10-31T07:30:36;14.60;99.90
59067;DHT22;44854;50.838;4.438;2022-10-31T07:33:02;14.60;99.90
59067;DHT22;44854;50.838;4.438;2022-10-31T07:35:28;14.60;99.90
59067;DHT22;44854;50.838;4.438;2022-10-31T07:37:54;14.60;99.90
59067;DHT22;44854;50.838;4.438;2022-10-31T07:40:20;14.70;99.90
59067;DHT22;44854;50.838;4.438;2022-10-31T07:42:47;14.70;99.90
59067;DHT22;44854;50.838;4.438;2022-10-31T07:45:13;15.10;99.90
59067;DHT22;44854;50.838;4.438;2022-10-31T07:47:39;15.20;99.90
59067;DHT22;44854;50.838;4.438;2022-10-31T07:50:05;15.10;99.90
59067;DHT22;44854;50.838;4.438;2022-10-31T07:52:31;15.30;99.90
59067;DHT22;44854;50.838;4.438;2022-10-31T07:54:57;15.20;99.90
59067;DHT22;44854;50.838;4.438;2022-10-31T07:57:22;15.30;99.90
59067;DHT22;44854;50.838;4.438;2022-10-31T07:59:48;15.40;99.90
59067;DHT22;44854;50.838;4.438;2022-10-31T08:02:13;15.50;99.90
59067;DHT22;44854;50.838;4.438;2022-10-31T08:04:39;15.60;99.90
59067;DHT22;44854;50.838;4.438;2022-10-31T08:07:04;15.30;99.90
59067;DHT22;44854;50.838;4.438;2022-10-31T08:09:30;15.30;99.90
59067;DHT22;44854;50.838;4.438;2022-10-31T08:11:55;15.20;99.90
59067;DHT22;44854;50.838;4.438;2022-10-31T08:14:21;15.60;99.90
59067;DHT22;44854;50.838;4.438;2022-10-31T08:16:47;15.70;99.90
59067;DHT22;44854;50.838;4.438;2022-10-31T08:19:13;15.50;99.90
59067;DHT22;44854;50.838;4.438;2022-10-31T08:21:39;15.40;99.90
59067;DHT22;44854;50.838;4.438;2022-10-31T08:24:04;15.40;99.90
59067;DHT22;44854;50.838;4.438;2022-10-31T08:26:30;15.40;99.90
59067;DHT22;44854;50.838;4.438;2022-10-31T08:28:56;15.40;99.90
59067;DHT22;44854;50.838;4.438;2022-10-31T08:31:21;15.60;99.90
59067;DHT22;44854;50.838;4.438;2022-10-31T08:33:48;16.00;99.90
59067;DHT22;44854;50.838;4.438;2022-10-31T08:36:13;16.10;99.90
59067;DHT22;44854;50.838;4.438;2022-10-31T08:38:39;16.00;99.90
59067;DHT22;44854;50.838;4.438;2022-10-31T08:41:04;16.00;99.90
59067;DHT22;44854;50.838;4.438;2022-10-31T08:43:30;15.90;99.90
59067;DHT22;44854;50.838;4.438;2022-10-31T08:45:55;15.90;99.90
59067;DHT22;44854;50.838;4.438;2022-10-31T08:48:21;15.80;99.90
59067;DHT22;44854;50.838;4.438;2022-10-31T08:50:47;15.80;99.90
59067;DHT22;44854;50.838;4.438;2022-10-31T08:53:16;16.00;99.90
59067;DHT22;44854;50.838;4.438;2022-10-31T08:55:42;16.10;99.90
59067;DHT22;44854;50.838;4.438;2022-10-31T08:58:12;16.10;99.90
59067;DHT22;44854;50.838;4.438;2022-10-31T09:00:38;16.30;99.90
59067;DHT22;44854;50.838;4.438;2022-10-31T09:03:05;16.50;99.90
59067;DHT22;44854;50.838;4.438;2022-10-31T09:05:30;16.10;99.90
59067;DHT22;44854;50.838;4.438;2022-10-31T09:07:57;16.00;99.90
59067;DHT22;44854;50.838;4.438;2022-10-31T09:10:23;16.20;99.90
59067;DHT22;44854;50.838;4.438;2022-10-31T09:12:54;16.30;99.90
59067;DHT22;44854;50.838;4.438;2022-10-31T09:15:19;16.40;99.90
59067;DHT22;44854;50.838;4.438;2022-10-31T09:17:48;16.40;99.90
59067;DHT22;44854;50.838;4.438;2022-10-31T09:20:14;16.60;99.90
59067;DHT22;44854;50.838;4.438;2022-10-31T09:22:39;16.50;99.90
59067;DHT22;44854;50.838;4.438;2022-10-31T09:25:05;16.50;99.90
59067;DHT22;44854;50.838;4.438;2022-10-31T09:27:30;16.50;99.90
59067;DHT22;44854;50.838;4.438;2022-10-31T09:29:56;16.60;99.90
59067;DHT22;44854;50.838;4.438;2022-10-31T09:32:21;16.70;99.90
59067;DHT22;44854;50.838;4.438;2022-10-31T09:34:47;16.90;99.90
59067;DHT22;44854;50.838;4.438;2022-10-31T09:37:12;16.70;99.90
59067;DHT22;44854;50.838;4.438;2022-10-31T09:39:38;16.80;99.90
59067;DHT22;44854;50.838;4.438;2022-10-31T09:42:23;16.80;99.90
59067;DHT22;44854;50.838;4.438;2022-10-31T09:45:01;16.70;99.90
59067;DHT22;44854;50.838;4.438;2022-10-31T09:52:43;16.70;99.90
59067;DHT22;44854;50.838;4.438;2022-10-31T09:55:30;16.60;99.90
59067;DHT22;44854;50.838;4.438;2022-10-31T09:57:56;16.70;99.90
59067;DHT22;44854;50.838;4.438;2022-10-31T10:00:23;16.40;99.90
59067;DHT22;44854;50.838;4.438;2022-10-31T10:05:34;16.20;99.90
59067;DHT22;44854;50.838;4.438;2022-10-31T10:25:49;15.80;99.90
59067;DHT22;44854;50.838;4.438;2022-10-31T10:28:19;15.90;99.90
59067;DHT22;44854;50.838;4.438;2022-10-31T10:30:48;16.10;99.90
59067;DHT22;44854;50.838;4.438;2022-10-31T10:35:42;16.30;99.90
59067;DHT22;44854;50.838;4.438;2022-10-31T10:40:49;16.60;99.90
59067;DHT22;44854;50.838;4.438;2022-10-31T10:54:12;17.00;99.90
59067;DHT22;44854;50.838;4.438;2022-10-31T10:56:41;17.00;99.90
59067;DHT22;44854;50.838;4.438;2022-10-31T10:59:11;17.10;99.90
59067;DHT22;44854;50.838;4.438;2022-10-31T11:01:38;17.20;99.90
59067;DHT22;44854;50.838;4.438;2022-10-31T11:04:05;17.30;99.90
59067;DHT22;44854;50.838;4.438;2022-10-31T11:06:34;17.40;99.90
59067;DHT22;44854;50.838;4.438;2022-10-31T11:08:59;17.40;99.90
59067;DHT22;44854;50.838;4.438;2022-10-31T11:11:33;17.40;99.90
59067;DHT22;44854;50.838;4.438;2022-10-31T11:14:05;17.40;99.90
59067;DHT22;44854;50.838;4.438;2022-10-31T11:16:38;17.40;99.90
59067;DHT22;44854;50.838;4.438;2022-10-31T11:19:06;17.30;99.90
59067;DHT22;44854;50.838;4.438;2022-10-31T11:21:32;17.80;99.90
59067;DHT22;44854;50.838;4.438;2022-10-31T11:26:34;17.50;99.90
59067;DHT22;44854;50.838;4.438;2022-10-31T11:29:00;17.50;99.90
59067;DHT22;44854;50.838;4.438;2022-10-31T11:31:28;17.50;99.90
59067;DHT22;44854;50.838;4.438;2022-10-31T11:36:25;17.60;99.90
59067;DHT22;44854;50.838;4.438;2022-10-31T11:38:52;17.50;99.90
59067;DHT22;44854;50.838;4.438;2022-10-31T11:44:05;17.80;99.90
59067;DHT22;44854;50.838;4.438;2022-10-31T11:49:00;17.90;99.90
59067;DHT22;44854;50.838;4.438;2022-10-31T11:51:27;17.90;99.90
59067;DHT22;44854;50.838;4.438;2022-10-31T11:53:55;18.00;99.90
59067;DHT22;44854;50.838;4.438;2022-10-31T11:56:21;18.10;99.90
59067;DHT22;44854;50.838;4.438;2022-10-31T11:59:12;18.20;99.90
59067;DHT22;44854;50.838;4.438;2022-10-31T12:01:46;18.10;99.90
59067;DHT22;44854;50.838;4.438;2022-10-31T12:04:12;18.10;99.90
59067;DHT22;44854;50.838;4.438;2022-10-31T12:06:39;18.20;99.90
59067;DHT22;44854;50.838;4.438;2022-10-31T12:09:19;18.20;99.90
59067;DHT22;44854;50.838;4.438;2022-10-31T12:14:24;18.50;99.90
59067;DHT22;44854;50.838;4.438;2022-10-31T12:16:53;18.70;99.90
59067;DHT22;44854;50.838;4.438;2022-10-31T12:22:05;18.80;99.90
59067;DHT22;44854;50.838;4.438;2022-10-31T12:29:50;19.20;99.90
59067;DHT22;44854;50.838;4.438;2022-10-31T12:32:24;19.10;99.90
59067;DHT22;44854;50.838;4.438;2022-10-31T12:44:58;19.20;99.90
59067;DHT22;44854;50.838;4.438;2022-10-31T12:59:57;19.20;99.90
59067;DHT22;44854;50.838;4.438;2022-10-31T13:02:33;19.30;99.90
59067;DHT22;44854;50.838;4.438;2022-10-31T13:07:42;19.40;99.90
59067;DHT22;44854;50.838;4.438;2022-10-31T13:10:16;19.50;99.90
59067;DHT22;44854;50.838;4.438;2022-10-31T13:12:45;19.40;99.90
59067;DHT22;44854;50.838;4.438;2022-10-31T13:17:40;19.60;99.90
59067;DHT22;44854;50.838;4.438;2022-10-31T13:22:49;19.60;99.90
59067;DHT22;44854;50.838;4.438;2022-10-31T13:27:47;19.50;99.90
59067;DHT22;44854;50.838;4.438;2022-10-31T13:30:20;19.50;99.90
59067;DHT22;44854;50.838;4.438;2022-10-31T13:35:23;19.80;99.90
59067;DHT22;44854;50.838;4.438;2022-10-31T13:37:54;19.90;99.90
59067;DHT22;44854;50.838;4.438;2022-10-31T13:40:29;19.90;99.90
59067;DHT22;44854;50.838;4.438;2022-10-31T13:45:48;19.90;99.90
59067;DHT22;44854;50.838;4.438;2022-10-31T13:50:54;19.80;99.90
59067;DHT22;44854;50.838;4.438;2022-10-31T13:53:20;19.80;99.90
59067;DHT22;44854;50.838;4.438;2022-10-31T13:55:48;19.90;99.90
59067;DHT22;44854;50.838;4.438;2022-10-31T13:58:26;19.80;99.90
59067;DHT22;44854;50.838;4.438;2022-10-31T14:00:58;19.80;99.90
59067;DHT22;44854;50.838;4.438;2022-10-31T14:03:25;19.70;99.90
59067;DHT22;44854;50.838;4.438;2022-10-31T14:05:53;19.70;99.90
59067;DHT22;44854;50.838;4.438;2022-10-31T14:08:20;19.60;99.90
59067;DHT22;44854;50.838;4.438;2022-10-31T14:10:48;19.60;99.90
59067;DHT22;44854;50.838;4.438;2022-10-31T14:13:21;19.50;99.90
59067;DHT22;44854;50.838;4.438;2022-10-31T14:16:06;19.50;99.90
59067;DHT22;44854;50.838;4.438;2022-10-31T14:18:37;19.50;99.90
59067;DHT22;44854;50.838;4.438;2022-10-31T14:23:47;19.50;99.90
59067;DHT22;44854;50.838;4.438;2022-10-31T14:28:44;19.60;99.90
59067;DHT22;44854;50.838;4.438;2022-10-31T14:31:34;19.70;99.90
59067;DHT22;44854;50.838;4.438;2022-10-31T14:34:01;19.80;99.90
59067;DHT22;44854;50.838;4.438;2022-10-31T14:36:37;19.80;99.90
59067;DHT22;44854;50.838;4.438;2022-10-31T14:51:54;19.50;99.90
59067;DHT22;44854;50.838;4.438;2022-10-31T14:54:32;19.60;99.90
59067;DHT22;44854;50.838;4.438;2022-10-31T14:57:06;19.50;99.90
59067;DHT22;44854;50.838;4.438;2022-10-31T14:59:33;19.30;99.90
59067;DHT22;44854;50.838;4.438;2022-10-31T15:02:08;19.30;99.90
59067;DHT22;44854;50.838;4.438;2022-10-31T15:04:36;19.30;99.90
59067;DHT22;44854;50.838;4.438;2022-10-31T15:09:42;19.30;99.90
59067;DHT22;44854;50.838;4.438;2022-10-31T15:14:52;19.30;99.90
59067;DHT22;44854;50.838;4.438;2022-10-31T15:17:18;19.30;99.90
59067;DHT22;44854;50.838;4.438;2022-10-31T15:19:43;19.40;99.90
59067;DHT22;44854;50.838;4.438;2022-10-31T15:22:16;19.40;99.90
59067;DHT22;44854;50.838;4.438;2022-10-31T15:24:42;19.30;99.90
59067;DHT22;44854;50.838;4.438;2022-10-31T15:27:17;19.30;99.90
59067;DHT22;44854;50.838;4.438;2022-10-31T15:29:49;19.20;99.90
59067;DHT22;44854;50.838;4.438;2022-10-31T15:34:48;19.10;99.90
59067;DHT22;44854;50.838;4.438;2022-10-31T15:37:14;19.10;99.90
59067;DHT22;44854;50.838;4.438;2022-10-31T15:39:41;19.00;99.90
59067;DHT22;44854;50.838;4.438;2022-10-31T15:52:59;18.70;99.90
59067;DHT22;44854;50.838;4.438;2022-10-31T15:55:25;18.70;99.90
59067;DHT22;44854;50.838;4.438;2022-10-31T15:57:57;18.70;99.90
59067;DHT22;44854;50.838;4.438;2022-10-31T16:00:27;18.70;99.90
59067;DHT22;44854;50.838;4.438;2022-10-31T16:03:06;18.60;99.90
59067;DHT22;44854;50.838;4.438;2022-10-31T16:05:38;18.50;99.90
59067;DHT22;44854;50.838;4.438;2022-10-31T16:08:04;18.50;99.90
59067;DHT22;44854;50.838;4.438;2022-10-31T16:10:32;18.50;99.90
59067;DHT22;44854;50.838;4.438;2022-10-31T16:12:58;18.40;99.90
59067;DHT22;44854;50.838;4.438;2022-10-31T16:15:25;18.40;99.90
59067;DHT22;44854;50.838;4.438;2022-10-31T16:17:51;18.40;99.90
59067;DHT22;44854;50.838;4.438;2022-10-31T16:20:25;18.30;99.90
59067;DHT22;44854;50.838;4.438;2022-10-31T16:22:51;18.20;99.90
59067;DHT22;44854;50.838;4.438;2022-10-31T16:27:52;18.40;99.90
59067;DHT22;44854;50.838;4.438;2022-10-31T16:32:55;18.20;99.90
59067;DHT22;44854;50.838;4.438;2022-10-31T16:35:28;18.30;99.90
59067;DHT22;44854;50.838;4.438;2022-10-31T16:37:56;18.10;99.90
59067;DHT22;44854;50.838;4.438;2022-10-31T16:40:22;18.00;99.90
59067;DHT22;44854;50.838;4.438;2022-10-31T16:42:47;18.00;99.90
59067;DHT22;44854;50.838;4.438;2022-10-31T16:45:18;17.90;99.90
59067;DHT22;44854;50.838;4.438;2022-10-31T16:47:44;17.80;99.90
59067;DHT22;44854;50.838;4.438;2022-10-31T16:50:27;17.70;99.90
59067;DHT22;44854;50.838;4.438;2022-10-31T16:52:53;17.70;99.90
59067;DHT22;44854;50.838;4.438;2022-10-31T16:55:19;17.70;99.90
59067;DHT22;44854;50.838;4.438;2022-10-31T16:57:54;17.60;99.90
59067;DHT22;44854;50.838;4.438;2022-10-31T17:00:23;17.50;99.90
59067;DHT22;44854;50.838;4.438;2022-10-31T17:02:53;17.40;99.90
59067;DHT22;44854;50.838;4.438;2022-10-31T17:05:19;17.50;99.90
59067;DHT22;44854;50.838;4.438;2022-10-31T17:07:46;17.40;99.90
59067;DHT22;44854;50.838;4.438;2022-10-31T17:10:11;17.50;99.90
59067;DHT22;44854;50.838;4.438;2022-10-31T17:12:39;17.70;99.90
59067;DHT22;44854;50.838;4.438;2022-10-31T17:15:06;17.80;99.90
59067;DHT22;44854;50.838;4.438;2022-10-31T17:17:35;17.40;99.90
59067;DHT22;44854;50.838;4.438;2022-10-31T17:20:10;17.20;99.90
59067;DHT22;44854;50.838;4.438;2022-10-31T17:22:38;17.20;99.90
59067;DHT22;44854;50.838;4.438;2022-10-31T17:25:04;17.00;99.90
59067;DHT22;44854;50.838;4.438;2022-10-31T17:27:29;16.80;99.90
59067;DHT22;44854;50.838;4.438;2022-10-31T17:29:55;16.80;99.90
59067;DHT22;44854;50.838;4.438;2022-10-31T17:32:20;16.80;99.90
59067;DHT22;44854;50.838;4.438;2022-10-31T17:34:46;16.90;99.90
59067;DHT22;44854;50.838;4.438;2022-10-31T17:37:11;17.00;99.90
59067;DHT22;44854;50.838;4.438;2022-10-31T17:39:40;16.90;99.90
59067;DHT22;44854;50.838;4.438;2022-10-31T17:42:06;17.10;99.90
59067;DHT22;44854;50.838;4.438;2022-10-31T17:44:31;17.20;99.90
59067;DHT22;44854;50.838;4.438;2022-10-31T17:46:57;17.40;99.90
59067;DHT22;44854;50.838;4.438;2022-10-31T17:49:22;17.20;99.90
59067;DHT22;44854;50.838;4.438;2022-10-31T17:51:48;17.20;99.90
59067;DHT22;44854;50.838;4.438;2022-10-31T17:54:13;17.10;99.90
59067;DHT22;44854;50.838;4.438;2022-10-31T17:56:42;17.00;99.90
59067;DHT22;44854;50.838;4.438;2022-10-31T17:59:08;16.70;99.90
59067;DHT22;44854;50.838;4.438;2022-10-31T18:01:33;16.70;99.90
59067;DHT22;44854;50.838;4.438;2022-10-31T18:03:59;16.70;99.90
59067;DHT22;44854;50.838;4.438;2022-10-31T18:06:24;16.60;99.90
59067;DHT22;44854;50.838;4.438;2022-10-31T18:08:50;16.70;99.90
59067;DHT22;44854;50.838;4.438;2022-10-31T18:11:16;16.80;99.90
59067;DHT22;44854;50.838;4.438;2022-10-31T18:13:43;17.00;99.90
59067;DHT22;44854;50.838;4.438;2022-10-31T18:16:10;17.20;99.90
59067;DHT22;44854;50.838;4.438;2022-10-31T18:18:36;17.40;99.90
59067;DHT22;44854;50.838;4.438;2022-10-31T18:21:01;17.20;99.90
59067;DHT22;44854;50.838;4.438;2022-10-31T18:23:27;17.00;99.90
59067;DHT22;44854;50.838;4.438;2022-10-31T18:25:53;16.90;99.90
59067;DHT22;44854;50.838;4.438;2022-10-31T18:28:19;16.90;99.90
59067;DHT22;44854;50.838;4.438;2022-10-31T18:30:45;16.90;99.90
59067;DHT22;44854;50.838;4.438;2022-10-31T18:33:10;17.00;99.90
59067;DHT22;44854;50.838;4.438;2022-10-31T18:35:36;17.10;99.90
59067;DHT22;44854;50.838;4.438;2022-10-31T18:38:02;17.20;99.90
59067;DHT22;44854;50.838;4.438;2022-10-31T18:40:28;17.30;99.90
59067;DHT22;44854;50.838;4.438;2022-10-31T18:42:53;17.20;99.90
59067;DHT22;44854;50.838;4.438;2022-10-31T18:45:19;17.10;99.90
59067;DHT22;44854;50.838;4.438;2022-10-31T18:47:44;17.00;99.90
59067;DHT22;44854;50.838;4.438;2022-10-31T18:50:10;17.30;99.90
59067;DHT22;44854;50.838;4.438;2022-10-31T18:52:35;17.20;99.90
59067;DHT22;44854;50.838;4.438;2022-10-31T18:55:01;17.20;99.90
59067;DHT22;44854;50.838;4.438;2022-10-31T18:57:27;17.30;99.90
59067;DHT22;44854;50.838;4.438;2022-10-31T18:59:52;17.30;99.90
59067;DHT22;44854;50.838;4.438;2022-10-31T19:02:18;17.30;99.90
59067;DHT22;44854;50.838;4.438;2022-10-31T19:04:45;17.40;99.90
59067;DHT22;44854;50.838;4.438;2022-10-31T19:07:11;17.30;99.90
59067;DHT22;44854;50.838;4.438;2022-10-31T19:09:36;17.40;99.90
59067;DHT22;44854;50.838;4.438;2022-10-31T19:12:02;17.30;99.90
59067;DHT22;44854;50.838;4.438;2022-10-31T19:14:28;17.30;99.90
59067;DHT22;44854;50.838;4.438;2022-10-31T19:16:53;17.40;99.90
59067;DHT22;44854;50.838;4.438;2022-10-31T19:19:19;17.40;99.90
59067;DHT22;44854;50.838;4.438;2022-10-31T19:21:45;17.30;99.90
59067;DHT22;44854;50.838;4.438;2022-10-31T19:24:10;17.20;99.90
59067;DHT22;44854;50.838;4.438;2022-10-31T19:26:36;17.20;99.90
59067;DHT22;44854;50.838;4.438;2022-10-31T19:29:03;17.10;99.90
59067;DHT22;44854;50.838;4.438;2022-10-31T19:31:29;17.00;99.90
59067;DHT22;44854;50.838;4.438;2022-10-31T19:33:54;17.10;99.90
59067;DHT22;44854;50.838;4.438;2022-10-31T19:36:20;17.20;99.90
59067;DHT22;44854;50.838;4.438;2022-10-31T19:38:49;17.20;99.90
59067;DHT22;44854;50.838;4.438;2022-10-31T19:41:19;17.20;99.90
59067;DHT22;44854;50.838;4.438;2022-10-31T19:43:45;17.20;99.90
59067;DHT22;44854;50.838;4.438;2022-10-31T19:46:11;17.20;99.90
59067;DHT22;44854;50.838;4.438;2022-10-31T19:48:38;17.20;99.90
59067;DHT22;44854;50.838;4.438;2022-10-31T19:51:13;17.20;99.90
59067;DHT22;44854;50.838;4.438;2022-10-31T19:53:39;17.20;99.90
59067;DHT22;44854;50.838;4.438;2022-10-31T19:58:37;17.20;99.90
59067;DHT22;44854;50.838;4.438;2022-10-31T20:01:19;17.20;99.90
59067;DHT22;44854;50.838;4.438;2022-10-31T20:03:45;17.10;99.90
59067;DHT22;44854;50.838;4.438;2022-10-31T20:06:24;17.20;99.90
59067;DHT22;44854;50.838;4.438;2022-10-31T20:08:51;17.20;99.90
59067;DHT22;44854;50.838;4.438;2022-10-31T20:11:16;17.20;99.90
59067;DHT22;44854;50.838;4.438;2022-10-31T20:13:42;17.20;99.90
59067;DHT22;44854;50.838;4.438;2022-10-31T20:16:09;17.30;99.90
59067;DHT22;44854;50.838;4.438;2022-10-31T20:18:35;17.20;99.90
59067;DHT22;44854;50.838;4.438;2022-10-31T20:21:05;17.20;99.90
59067;DHT22;44854;50.838;4.438;2022-10-31T20:23:31;17.30;99.90
59067;DHT22;44854;50.838;4.438;2022-10-31T20:25:57;17.40;99.90
59067;DHT22;44854;50.838;4.438;2022-10-31T20:28:23;17.50;99.90
59067;DHT22;44854;50.838;4.438;2022-10-31T20:30:48;17.60;99.90
59067;DHT22;44854;50.838;4.438;2022-10-31T20:33:14;17.80;99.90
59067;DHT22;44854;50.838;4.438;2022-10-31T20:35:40;17.70;99.90
59067;DHT22;44854;50.838;4.438;2022-10-31T20:38:06;17.70;99.90
59067;DHT22;44854;50.838;4.438;2022-10-31T20:40:32;17.50;99.90
59067;DHT22;44854;50.838;4.438;2022-10-31T20:42:58;17.40;99.90
59067;DHT22;44854;50.838;4.438;2022-10-31T20:45:24;17.50;99.90
59067;DHT22;44854;50.838;4.438;2022-10-31T20:47:50;17.50;99.90
59067;DHT22;44854;50.838;4.438;2022-10-31T20:50:16;17.50;99.90
59067;DHT22;44854;50.838;4.438;2022-10-31T20:52:41;17.60;99.90
59067;DHT22;44854;50.838;4.438;2022-10-31T20:55:07;17.60;99.90
59067;DHT22;44854;50.838;4.438;2022-10-31T20:57:32;17.60;99.90
59067;DHT22;44854;50.838;4.438;2022-10-31T20:59:58;17.60;99.90
59067;DHT22;44854;50.838;4.438;2022-10-31T21:02:24;17.70;99.90
59067;DHT22;44854;50.838;4.438;2022-10-31T21:04:49;17.60;99.90
59067;DHT22;44854;50.838;4.438;2022-10-31T21:07:15;17.70;99.90
59067;DHT22;44854;50.838;4.438;2022-10-31T21:09:40;17.70;99.90
59067;DHT22;44854;50.838;4.438;2022-10-31T21:12:06;17.70;99.90
59067;DHT22;44854;50.838;4.438;2022-10-31T21:14:31;17.60;99.90
59067;DHT22;44854;50.838;4.438;2022-10-31T21:16:57;17.70;99.90
59067;DHT22;44854;50.838;4.438;2022-10-31T21:19:22;17.70;99.90
59067;DHT22;44854;50.838;4.438;2022-10-31T21:21:48;17.70;99.90
59067;DHT22;44854;50.838;4.438;2022-10-31T21:24:14;17.70;99.90
59067;DHT22;44854;50.838;4.438;2022-10-31T21:26:41;17.60;99.90
59067;DHT22;44854;50.838;4.438;2022-10-31T21:29:08;17.70;99.90
59067;DHT22;44854;50.838;4.438;2022-10-31T21:31:34;17.60;99.90
59067;DHT22;44854;50.838;4.438;2022-10-31T21:34:00;17.60;99.90
59067;DHT22;44854;50.838;4.438;2022-10-31T21:36:26;17.70;99.90
59067;DHT22;44854;50.838;4.438;2022-10-31T21:38:52;17.80;99.90
59067;DHT22;44854;50.838;4.438;2022-10-31T21:41:18;17.70;99.90
59067;DHT22;44854;50.838;4.438;2022-10-31T21:43:44;17.60;99.90
59067;DHT22;44854;50.838;4.438;2022-10-31T21:46:11;17.60;99.90
59067;DHT22;44854;50.838;4.438;2022-10-31T21:48:37;17.60;99.90
59067;DHT22;44854;50.838;4.438;2022-10-31T21:51:05;17.80;99.90
59067;DHT22;44854;50.838;4.438;2022-10-31T21:53:33;17.90;99.90
59067;DHT22;44854;50.838;4.438;2022-10-31T21:56:17;18.00;99.90
59067;DHT22;44854;50.838;4.438;2022-10-31T21:58:43;18.00;99.90
